Juncos, Puerto Rico
Current Conditions -  °F | °C
As of 5:56 AM on Friday 21 Nov 2014 (Local Time) from TJSJ Reporting Station
Scattered Clouds Scattered Clouds  
Wind Chill: 78°   Ceiling: Unl
Heat Index: 80°   Visibility: 10mi
Dew Point: 72°   Wind: 0mph
Humidity: 81%   Direction: NA
Pressure: 29.99"   Gusts: NA
Location:  18.23°N, 65.92°W
Report Text: TJSJ 210956Z 00000KT 10SM FEW029 SCT055 26/22 A2999 RMK AO2 SLP154 T02560222
Loading
Personal Weather Stations






























Interactive Weather Map New forecast layout! Learn more

10-Day Weather Forecast

Advertisements
Track Severe Weather on mobile